Time;durP1;ratioP1;P1;durP2;ratioP2;P2;SDS_P1;SDS_P2;PMS_P1;PMS_P2;Temp;Humidity;BMP_temperature;BMP_pressure;BME280_temperature;BME280_humidity;BME280_pressure;Samples;Min_cycle;Max_cycle;Signal;HPM_P1;HPM_P2
2023/09/15 00:00:20;;;;;;;6.20;4.63;;;19.70;97.60;;;;;;4974684;28;20081;-73
2023/09/15 00:02:47;;;;;;;5.60;4.80;;;19.70;97.60;;;;;;4974278;28;20030;-67
2023/09/15 00:05:14;;;;;;;6.03;5.20;;;19.70;97.60;;;;;;4974690;28;20019;-72
2023/09/15 00:07:39;;;;;;;6.97;5.30;;;19.70;97.70;;;;;;4974538;28;20035;-72
2023/09/15 00:10:11;;;;;;;5.47;4.68;;;19.70;97.70;;;;;;4974497;28;20057;-68
2023/09/15 00:12:38;;;;;;;5.35;4.85;;;19.70;97.80;;;;;;4974031;28;20073;-72
2023/09/15 00:15:07;;;;;;;7.65;5.53;;;19.70;97.80;;;;;;4974368;28;20106;-68
2023/09/15 00:17:40;;;;;;;8.95;5.43;;;19.70;97.90;;;;;;4974008;28;20098;-67
2023/09/15 00:20:13;;;;;;;7.72;5.60;;;19.70;97.90;;;;;;4974237;28;20054;-72
2023/09/15 00:22:50;;;;;;;6.88;5.40;;;19.60;98.00;;;;;;4974255;28;20387;-68
2023/09/15 00:25:20;;;;;;;6.70;5.70;;;19.60;98.00;;;;;;4974280;28;20031;-71
2023/09/15 00:27:48;;;;;;;8.90;5.38;;;19.60;98.10;;;;;;4974299;28;20055;-73
2023/09/15 00:30:15;;;;;;;5.85;5.32;;;19.60;98.40;;;;;;4974456;28;20022;-70
2023/09/15 00:32:40;;;;;;;7.97;5.93;;;19.50;98.10;;;;;;4973866;28;20019;-73
2023/09/15 00:35:06;;;;;;;11.40;6.15;;;19.50;98.20;;;;;;4974303;28;20027;-67
2023/09/15 00:37:32;;;;;;;7.43;6.03;;;19.40;98.20;;;;;;4974154;28;20440;-71
2023/09/15 00:40:00;;;;;;;8.10;6.47;;;19.50;98.30;;;;;;4974311;28;20045;-71
2023/09/15 00:42:26;;;;;;;10.63;6.70;;;19.40;98.30;;;;;;4974191;28;20031;-71
2023/09/15 00:44:52;;;;;;;8.60;5.93;;;19.50;98.30;;;;;;4974220;28;20023;-72
2023/09/15 00:47:18;;;;;;;7.13;6.43;;;19.40;98.40;;;;;;4973716;28;20057;-71
2023/09/15 00:49:45;;;;;;;7.53;6.82;;;19.50;98.30;;;;;;4974036;28;20019;-71
2023/09/15 00:52:11;;;;;;;8.05;6.75;;;19.40;98.40;;;;;;4974255;28;20050;-72
2023/09/15 00:54:39;;;;;;;8.65;7.53;;;19.40;98.50;;;;;;4974037;28;20488;-67
2023/09/15 00:57:05;;;;;;;8.55;7.22;;;19.30;98.60;;;;;;4974039;28;20051;-72
2023/09/15 00:59:32;;;;;;;8.57;7.78;;;19.20;98.70;;;;;;4973813;28;20050;-67
2023/09/15 01:02:00;;;;;;;10.63;6.70;;;19.20;98.70;;;;;;4966613;28;20020;-71
2023/09/15 01:04:27;;;;;;;8.70;7.40;;;19.20;98.80;;;;;;4973851;28;20031;-73
2023/09/15 01:06:55;;;;;;;9.55;7.03;;;19.20;98.80;;;;;;4971576;28;20023;-71
2023/09/15 01:09:22;;;;;;;8.07;7.00;;;19.20;98.90;;;;;;4972979;28;20457;-69
2023/09/15 01:11:50;;;;;;;16.02;7.75;;;19.10;98.90;;;;;;4974195;28;20110;-72
2023/09/15 01:14:16;;;;;;;8.43;7.50;;;19.10;98.90;;;;;;4973872;28;20022;-71
2023/09/15 01:16:54;;;;;;;8.68;7.13;;;19.10;98.90;;;;;;4973389;28;20487;-71
2023/09/15 01:20:06;;;;;;;10.73;7.57;;;19.20;98.90;;;;;;4973771;28;20081;-67
2023/09/15 01:22:56;;;;;;;8.50;7.70;;;19.20;98.80;;;;;;4969685;28;20050;-68
2023/09/15 01:25:33;;;;;;;10.93;8.73;;;19.20;98.90;;;;;;4975998;28;20101;-68
2023/09/15 01:28:17;;;;;;;10.63;8.95;;;19.10;99.00;;;;;;4977288;28;20065;-72
2023/09/15 01:30:45;;;;;;;8.88;7.68;;;19.10;99.00;;;;;;4977310;28;20031;-72
2023/09/15 01:33:13;;;;;;;9.35;8.40;;;19.10;99.00;;;;;;4977406;28;20027;-72
2023/09/15 01:35:39;;;;;;;11.20;8.77;;;19.00;99.10;;;;;;4977093;28;20027;-68
2023/09/15 01:38:04;;;;;;;9.13;8.18;;;19.00;99.20;;;;;;4976038;28;20354;-70
2023/09/15 01:40:31;;;;;;;10.02;8.23;;;19.00;99.20;;;;;;4977210;28;20029;-67
2023/09/15 01:42:57;;;;;;;9.50;8.45;;;18.90;99.30;;;;;;4977248;28;20034;-68
2023/09/15 01:45:22;;;;;;;10.32;8.93;;;18.90;99.30;;;;;;4976613;28;20026;-72
2023/09/15 01:47:48;;;;;;;11.43;8.63;;;18.90;99.30;;;;;;4977046;28;20110;-68
2023/09/15 01:50:15;;;;;;;10.40;9.30;;;18.90;99.20;;;;;;4976914;28;20022;-67
2023/09/15 01:52:43;;;;;;;10.35;8.65;;;18.90;99.30;;;;;;4977127;28;20031;-67
2023/09/15 01:55:10;;;;;;;10.52;9.07;;;18.90;99.40;;;;;;4976818;28;20015;-67
2023/09/15 01:57:35;;;;;;;9.65;8.65;;;18.90;99.50;;;;;;4976799;28;20038;-70
2023/09/15 02:00:01;;;;;;;11.13;8.77;;;18.80;99.50;;;;;;4976398;28;20026;-70
2023/09/15 02:02:26;;;;;;;10.48;9.30;;;18.80;99.50;;;;;;4975583;28;20029;-72
2023/09/15 02:04:53;;;;;;;11.52;8.80;;;18.80;99.60;;;;;;4976718;28;20011;-69
2023/09/15 02:07:19;;;;;;;11.15;9.70;;;18.80;99.60;;;;;;4976510;28;20494;-72
2023/09/15 02:09:44;;;;;;;11.02;9.73;;;18.70;99.60;;;;;;4976577;28;20027;-71
2023/09/15 02:12:10;;;;;;;12.95;9.38;;;18.80;99.60;;;;;;4976582;28;20127;-68
2023/09/15 02:14:36;;;;;;;10.23;9.23;;;18.80;99.60;;;;;;4976397;28;20023;-71
2023/09/15 02:17:02;;;;;;;9.93;8.93;;;18.80;99.70;;;;;;4976512;28;20500;-72
2023/09/15 02:19:30;;;;;;;11.27;9.27;;;18.80;99.70;;;;;;4976210;28;20023;-67
2023/09/15 02:21:57;;;;;;;14.75;10.55;;;18.70;99.70;;;;;;4976425;28;20026;-72
2023/09/15 02:24:23;;;;;;;10.98;9.13;;;18.70;99.80;;;;;;4976445;28;20026;-69
2023/09/15 02:26:49;;;;;;;11.05;9.95;;;18.70;99.80;;;;;;4976176;28;20046;-70
2023/09/15 02:29:14;;;;;;;14.95;10.15;;;18.70;99.80;;;;;;4976153;28;20101;-70
2023/09/15 02:31:41;;;;;;;10.82;9.18;;;18.70;99.80;;;;;;4976362;28;20380;-67
2023/09/15 02:34:06;;;;;;;11.82;10.38;;;18.70;99.80;;;;;;4976314;28;20062;-67
2023/09/15 02:36:32;;;;;;;12.95;10.52;;;18.60;99.80;;;;;;4975514;28;20031;-72
2023/09/15 02:38:57;;;;;;;12.27;10.35;;;18.70;99.80;;;;;;4976145;28;20192;-72
2023/09/15 02:41:23;;;;;;;11.85;10.65;;;18.60;99.80;;;;;;4976113;28;20057;-67
2023/09/15 02:43:49;;;;;;;12.15;10.90;;;18.60;99.90;;;;;;4975961;28;20062;-67
2023/09/15 02:46:15;;;;;;;11.93;10.35;;;18.60;99.90;;;;;;4975764;28;20039;-68
2023/09/15 02:48:43;;;;;;;12.35;10.30;;;18.50;99.90;;;;;;4976021;28;20082;-67
2023/09/15 02:51:09;;;;;;;12.13;10.75;;;18.50;99.90;;;;;;4975946;28;20023;-67
2023/09/15 02:53:34;;;;;;;12.77;10.43;;;18.50;99.90;;;;;;4975866;28;20081;-73
2023/09/15 02:56:05;;;;;;;12.32;11.13;;;18.50;99.90;;;;;;4975829;28;20114;-73
2023/09/15 02:58:31;;;;;;;13.48;11.95;;;18.50;99.90;;;;;;4975675;28;20025;-71
2023/09/15 03:00:57;;;;;;;14.00;10.65;;;18.50;99.90;;;;;;4975591;28;20035;-67
2023/09/15 03:03:23;;;;;;;15.45;11.55;;;18.50;99.90;;;;;;4975768;28;20019;-72
2023/09/15 03:05:49;;;;;;;13.38;11.30;;;18.40;99.90;;;;;;4975439;28;20081;-72
2023/09/15 03:08:15;;;;;;;13.18;11.93;;;18.40;99.90;;;;;;4975612;28;20539;-71
2023/09/15 03:10:41;;;;;;;13.68;11.07;;;18.40;99.90;;;;;;4975704;28;20030;-68
2023/09/15 03:13:06;;;;;;;12.88;11.55;;;18.40;99.90;;;;;;4975389;28;20436;-68
2023/09/15 03:15:39;;;;;;;13.77;10.93;;;18.30;99.90;;;;;;4975469;28;20023;-70
2023/09/15 03:18:05;;;;;;;13.60;12.25;;;18.40;99.90;;;;;;4975366;28;20435;-73
2023/09/15 03:20:30;;;;;;;13.45;12.05;;;18.30;99.90;;;;;;4975357;28;20026;-68
2023/09/15 03:22:56;;;;;;;14.00;12.15;;;18.40;99.90;;;;;;4975243;28;20157;-72
2023/09/15 03:25:22;;;;;;;14.15;11.98;;;18.30;99.90;;;;;;4975241;28;20107;-72
2023/09/15 03:27:47;;;;;;;14.60;13.10;;;18.30;99.90;;;;;;4975014;28;20121;-72
2023/09/15 03:30:13;;;;;;;14.70;12.88;;;18.30;99.90;;;;;;4975099;28;20062;-72
2023/09/15 03:32:38;;;;;;;14.13;12.75;;;18.30;99.90;;;;;;4975217;28;20495;-66
2023/09/15 03:35:06;;;;;;;15.70;13.68;;;18.20;99.90;;;;;;4975208;28;20534;-72
2023/09/15 03:37:32;;;;;;;19.00;13.77;;;18.20;99.90;;;;;;4973616;28;20416;-72
2023/09/15 03:39:58;;;;;;;15.43;13.88;;;18.20;99.90;;;;;;4974940;28;20015;-70
2023/09/15 03:42:24;;;;;;;15.13;13.63;;;18.20;99.90;;;;;;4974711;28;20033;-68
2023/09/15 03:44:50;;;;;;;15.93;14.00;;;18.20;99.90;;;;;;4975117;28;20022;-67
2023/09/15 03:47:15;;;;;;;16.15;14.40;;;18.20;99.90;;;;;;4974404;28;20062;-68
2023/09/15 03:49:41;;;;;;;16.10;14.40;;;18.10;99.90;;;;;;4974522;28;20054;-72
2023/09/15 03:52:07;;;;;;;15.80;14.13;;;18.20;99.90;;;;;;4974656;28;20046;-67
2023/09/15 03:54:33;;;;;;;16.73;14.90;;;18.10;99.90;;;;;;4975101;28;20031;-72
2023/09/15 03:56:58;;;;;;;16.25;14.63;;;18.10;99.90;;;;;;4974593;28;20387;-72
2023/09/15 03:59:24;;;;;;;18.35;15.05;;;18.20;99.90;;;;;;4974740;28;20026;-72
2023/09/15 04:01:49;;;;;;;18.98;14.90;;;18.10;99.90;;;;;;4974674;28;20110;-68
2023/09/15 04:04:15;;;;;;;16.95;15.30;;;18.00;99.90;;;;;;4974700;28;20023;-67
2023/09/15 04:06:41;;;;;;;17.92;15.98;;;18.00;99.90;;;;;;4973180;28;20472;-70
2023/09/15 04:09:10;;;;;;;16.58;14.75;;;18.00;99.90;;;;;;4974154;28;20134;-67
2023/09/15 04:11:36;;;;;;;19.95;16.08;;;18.10;99.90;;;;;;4974751;28;20085;-67
2023/09/15 04:14:03;;;;;;;17.15;15.18;;;18.10;99.90;;;;;;4974607;28;20031;-73
2023/09/15 04:16:29;;;;;;;18.08;16.02;;;18.00;99.90;;;;;;4974557;28;20473;-71
2023/09/15 04:18:54;;;;;;;57.65;19.25;;;17.90;99.90;;;;;;4974454;28;20037;-67
2023/09/15 04:21:21;;;;;;;17.00;14.68;;;18.00;99.90;;;;;;4974417;28;20031;-71
2023/09/15 04:23:47;;;;;;;18.23;16.08;;;18.30;99.90;;;;;;4974129;28;20102;-73
2023/09/15 04:26:12;;;;;;;15.65;13.60;;;18.50;99.80;;;;;;4974338;28;20143;-73
2023/09/15 04:28:38;;;;;;;15.10;13.60;;;18.60;99.60;;;;;;4974384;28;20081;-73
2023/09/15 04:31:03;;;;;;;17.45;14.15;;;18.60;99.90;;;;;;4974497;28;20496;-67
2023/09/15 04:33:29;;;;;;;14.82;13.32;;;18.60;99.50;;;;;;4974223;28;20089;-73
2023/09/15 04:35:55;;;;;;;15.77;14.02;;;18.70;99.40;;;;;;4974294;28;20030;-67
2023/09/15 04:38:21;;;;;;;16.02;14.30;;;18.60;99.40;;;;;;4974034;28;20380;-68
2023/09/15 04:40:46;;;;;;;15.77;14.13;;;18.60;99.60;;;;;;4974435;28;20055;-73
2023/09/15 04:43:12;;;;;;;19.17;14.90;;;18.60;99.70;;;;;;4974140;28;20494;-72
2023/09/15 04:45:39;;;;;;;19.17;15.60;;;18.60;99.40;;;;;;4974278;28;20023;-71
2023/09/15 04:48:05;;;;;;;17.00;15.07;;;18.60;99.40;;;;;;4974075;28;20058;-67
2023/09/15 04:50:30;;;;;;;17.08;15.10;;;18.60;99.60;;;;;;4974179;28;20031;-67
2023/09/15 04:52:56;;;;;;;17.48;15.60;;;18.60;99.70;;;;;;4973776;28;20042;-71
2023/09/15 04:55:22;;;;;;;19.92;15.55;;;18.60;99.70;;;;;;4974012;28;20388;-67
2023/09/15 04:57:48;;;;;;;18.02;14.73;;;18.60;99.70;;;;;;4974131;28;20077;-72
2023/09/15 05:00:21;;;;;;;19.08;16.58;;;18.50;99.80;;;;;;4975862;28;20109;-72
2023/09/15 05:02:46;;;;;;;18.48;16.48;;;18.50;99.70;;;;;;4958714;28;20027;-69
2023/09/15 05:05:12;;;;;;;17.90;16.00;;;18.50;99.70;;;;;;4957821;29;20358;-72
2023/09/15 05:07:37;;;;;;;18.42;16.48;;;18.50;99.70;;;;;;4958196;28;20035;-67
2023/09/15 05:10:03;;;;;;;18.88;16.95;;;18.50;99.90;;;;;;4958455;29;20495;-69
2023/09/15 05:12:29;;;;;;;17.98;16.17;;;18.50;99.80;;;;;;4964371;28;20023;-68
2023/09/15 05:14:55;;;;;;;19.45;16.00;;;18.40;99.80;;;;;;4987971;28;20623;-72
2023/09/15 05:17:22;;;;;;;19.20;17.23;;;18.40;99.90;;;;;;4974586;28;20037;-68
2023/09/15 05:19:49;;;;;;;18.30;16.42;;;18.40;99.90;;;;;;4983084;28;20077;-71
2023/09/15 05:22:15;;;;;;;17.50;15.77;;;18.40;99.90;;;;;;4996779;28;20034;-72
2023/09/15 05:24:40;;;;;;;17.75;15.85;;;18.40;99.90;;;;;;4992962;28;20026;-72
2023/09/15 05:27:06;;;;;;;17.98;16.13;;;18.40;99.90;;;;;;4977238;28;20463;-67
2023/09/15 05:29:32;;;;;;;18.35;16.33;;;18.40;99.90;;;;;;4977058;28;20031;-72
2023/09/15 05:31:58;;;;;;;19.05;17.05;;;18.40;99.90;;;;;;4977292;28;20061;-68
2023/09/15 05:34:23;;;;;;;20.20;18.17;;;18.40;99.90;;;;;;4977184;28;20070;-69
2023/09/15 05:36:50;;;;;;;17.88;15.98;;;18.50;99.90;;;;;;4989219;28;20029;-71
2023/09/15 05:39:16;;;;;;;20.60;17.70;;;18.40;99.90;;;;;;4995291;28;20022;-70
2023/09/15 05:41:41;;;;;;;22.95;17.63;;;18.30;99.90;;;;;;4990112;28;20029;-71
2023/09/15 05:44:07;;;;;;;19.60;16.90;;;18.30;99.90;;;;;;4976671;28;20026;-68
2023/09/15 05:46:33;;;;;;;21.65;17.80;;;18.30;99.90;;;;;;4976752;28;20042;-68
2023/09/15 05:48:58;;;;;;;19.92;16.92;;;18.20;99.90;;;;;;4976744;28;20022;-70
2023/09/15 05:51:24;;;;;;;20.13;18.00;;;18.20;99.90;;;;;;4976892;28;20055;-72
2023/09/15 05:53:49;;;;;;;23.30;18.48;;;18.20;99.90;;;;;;4977057;28;20037;-68
2023/09/15 05:56:17;;;;;;;19.27;17.27;;;18.20;99.90;;;;;;4976873;28;20054;-72
2023/09/15 05:58:43;;;;;;;20.48;18.27;;;18.20;99.90;;;;;;4970297;28;20038;-72
2023/09/15 06:01:08;;;;;;;23.70;19.65;;;18.00;99.90;;;;;;4970861;28;20018;-69
2023/09/15 06:03:36;;;;;;;22.92;18.95;;;17.80;99.90;;;;;;4970525;28;20369;-71
2023/09/15 06:06:02;;;;;;;21.45;19.15;;;17.70;99.90;;;;;;4969738;28;20027;-69
2023/09/15 06:08:28;;;;;;;22.70;20.35;;;17.70;99.90;;;;;;4965728;28;20086;-70
2023/09/15 06:10:54;;;;;;;24.63;19.80;;;17.70;99.90;;;;;;4969213;28;20081;-67
2023/09/15 06:13:19;;;;;;;21.30;18.98;;;17.70;99.90;;;;;;4971029;28;20396;-71
2023/09/15 06:15:45;;;;;;;21.83;19.45;;;17.70;99.90;;;;;;4968099;28;20027;-72
2023/09/15 06:18:11;;;;;;;21.23;19.00;;;17.70;99.90;;;;;;4961909;28;20034;-72
2023/09/15 06:20:36;;;;;;;21.17;18.98;;;17.80;99.90;;;;;;4974031;28;20073;-66
2023/09/15 06:23:03;;;;;;;23.88;19.85;;;17.90;99.90;;;;;;4970713;28;20027;-72
2023/09/15 06:25:30;;;;;;;25.70;19.83;;;17.80;99.90;;;;;;4956872;28;20027;-72
2023/09/15 06:27:57;;;;;;;22.05;19.67;;;17.80;99.90;;;;;;4956458;28;20555;-72
2023/09/15 06:30:23;;;;;;;22.75;20.42;;;17.80;99.90;;;;;;4972570;28;20031;-71
2023/09/15 06:32:48;;;;;;;26.80;18.67;;;17.90;99.90;;;;;;4968952;28;20023;-72
2023/09/15 06:35:14;;;;;;;24.63;18.40;;;17.90;99.90;;;;;;4961776;28;20508;-72
2023/09/15 06:37:42;;;;;;;20.83;18.55;;;17.90;99.90;;;;;;4957612;28;20110;-70
2023/09/15 06:40:09;;;;;;;22.05;19.38;;;17.90;99.90;;;;;;4967843;28;20034;-72
2023/09/15 06:42:34;;;;;;;19.83;17.67;;;17.90;99.90;;;;;;4981077;28;20029;-66
2023/09/15 06:45:00;;;;;;;20.20;18.05;;;18.00;99.90;;;;;;4973248;28;20031;-68
2023/09/15 06:47:26;;;;;;;19.73;17.70;;;18.00;99.90;;;;;;4971816;28;20050;-70
2023/09/15 06:49:51;;;;;;;18.08;16.30;;;18.10;99.90;;;;;;4966922;28;20055;-71
2023/09/15 06:52:17;;;;;;;21.90;17.30;;;18.10;99.90;;;;;;4972721;28;20034;-68
2023/09/15 06:54:43;;;;;;;18.70;16.63;;;18.10;99.90;;;;;;4974229;28;20034;-67
2023/09/15 06:57:08;;;;;;;19.45;17.48;;;18.10;99.90;;;;;;4974512;28;20020;-72
2023/09/15 06:59:34;;;;;;;19.55;16.95;;;18.20;99.90;;;;;;4968987;28;20458;-71
2023/09/15 07:02:02;;;;;;;19.48;16.60;;;18.20;99.90;;;;;;4969726;28;20496;-66
2023/09/15 07:04:31;;;;;;;17.65;15.73;;;18.20;99.90;;;;;;4961913;28;20015;-71
2023/09/15 07:06:57;;;;;;;19.10;15.65;;;18.30;99.90;;;;;;4972202;28;20049;-72
2023/09/15 07:09:24;;;;;;;16.67;14.93;;;18.30;99.90;;;;;;4971611;28;20101;-70
2023/09/15 07:11:50;;;;;;;17.02;15.27;;;18.30;99.90;;;;;;4974030;28;20029;-67
2023/09/15 07:14:16;;;;;;;19.52;15.48;;;18.30;99.90;;;;;;4973697;28;20034;-68
2023/09/15 07:16:43;;;;;;;20.17;15.00;;;18.30;99.90;;;;;;4974516;28;20077;-65
2023/09/15 07:19:09;;;;;;;18.73;14.55;;;18.30;99.90;;;;;;4974433;28;20491;-65
2023/09/15 07:21:40;;;;;;;15.43;13.82;;;18.40;99.90;;;;;;4974805;28;20034;-66
2023/09/15 07:24:07;;;;;;;15.15;13.55;;;18.50;99.90;;;;;;4976451;28;20023;-69
2023/09/15 07:26:32;;;;;;;18.25;14.88;;;18.50;99.90;;;;;;4974550;28;20070;-65
2023/09/15 07:28:58;;;;;;;14.88;13.35;;;18.60;99.90;;;;;;4972934;28;20057;-70
2023/09/15 07:31:24;;;;;;;14.18;12.77;;;18.60;99.90;;;;;;4974095;28;20031;-69
2023/09/15 07:33:49;;;;;;;13.88;12.43;;;18.70;99.90;;;;;;4974139;28;20481;-72
2023/09/15 07:36:15;;;;;;;14.77;13.25;;;18.80;99.90;;;;;;4974046;28;20140;-71
2023/09/15 07:38:41;;;;;;;13.82;11.98;;;18.80;99.90;;;;;;4974217;28;20038;-73
2023/09/15 07:41:06;;;;;;;14.15;11.55;;;18.90;99.90;;;;;;4973723;28;20029;-66
2023/09/15 07:43:32;;;;;;;23.83;14.05;;;18.90;99.90;;;;;;4969984;28;20088;-68
2023/09/15 07:45:58;;;;;;;15.23;11.45;;;19.00;99.90;;;;;;4975589;28;20039;-69
2023/09/15 07:48:23;;;;;;;13.15;11.85;;;19.00;99.90;;;;;;4983936;28;20034;-65
2023/09/15 07:50:50;;;;;;;14.75;11.77;;;19.00;99.90;;;;;;4967556;28;20050;-67
2023/09/15 07:53:16;;;;;;;15.98;11.52;;;19.10;99.90;;;;;;4973500;28;20114;-65
2023/09/15 07:55:42;;;;;;;13.15;10.13;;;19.20;99.90;;;;;;4974099;28;20428;-70
2023/09/15 07:58:07;;;;;;;12.52;11.23;;;19.20;99.90;;;;;;4974454;28;20050;-67
2023/09/15 08:00:33;;;;;;;11.15;10.07;;;19.30;99.90;;;;;;4973432;28;20023;-69
2023/09/15 08:02:59;;;;;;;16.73;10.48;;;19.30;99.90;;;;;;4970746;28;20022;-66
2023/09/15 08:05:24;;;;;;;12.73;10.15;;;19.30;99.90;;;;;;4973252;28;20031;-67
2023/09/15 08:07:50;;;;;;;13.52;9.93;;;19.40;99.90;;;;;;4972623;28;20035;-70
2023/09/15 08:10:18;;;;;;;16.90;10.80;;;19.40;99.90;;;;;;4973639;28;20085;-66
2023/09/15 08:12:44;;;;;;;11.95;9.60;;;19.50;99.90;;;;;;4973698;28;20027;-69
2023/09/15 08:15:10;;;;;;;11.45;10.25;;;19.50;99.90;;;;;;4973632;28;20097;-72
2023/09/15 08:17:36;;;;;;;12.23;9.52;;;19.50;99.90;;;;;;4962823;28;20085;-67
2023/09/15 08:20:03;;;;;;;10.45;8.32;;;19.60;99.90;;;;;;4974113;28;20074;-71
2023/09/15 08:22:31;;;;;;;11.35;9.02;;;19.60;99.90;;;;;;4959114;28;20358;-67
2023/09/15 08:25:01;;;;;;;11.35;9.25;;;19.60;99.90;;;;;;4953569;29;20030;-72
2023/09/15 08:27:27;;;;;;;11.18;8.73;;;19.70;99.90;;;;;;4954112;29;20051;-68
2023/09/15 08:29:52;;;;;;;11.85;8.43;;;19.70;99.90;;;;;;4953908;28;20023;-69
2023/09/15 08:32:18;;;;;;;8.57;7.68;;;19.70;99.90;;;;;;4953715;29;20498;-72
2023/09/15 08:34:44;;;;;;;7.70;6.80;;;19.70;99.90;;;;;;4958103;28;20041;-71
2023/09/15 08:37:09;;;;;;;13.18;6.50;;;19.80;99.90;;;;;;4957547;29;20481;-73
2023/09/15 08:39:36;;;;;;;8.93;7.68;;;19.80;99.90;;;;;;4960128;28;20062;-67
2023/09/15 08:42:04;;;;;;;14.55;6.85;;;19.80;99.90;;;;;;4962935;28;20027;-73
2023/09/15 08:44:32;;;;;;;8.32;6.55;;;19.90;99.90;;;;;;4966569;28;20459;-68
2023/09/15 08:47:00;;;;;;;7.78;6.85;;;19.90;99.90;;;;;;4962568;28;20027;-66
2023/09/15 08:49:27;;;;;;;8.10;6.47;;;19.90;99.90;;;;;;4963719;28;20023;-68
2023/09/15 08:51:57;;;;;;;9.90;7.35;;;19.90;99.90;;;;;;4972880;28;20034;-67
2023/09/15 08:54:23;;;;;;;8.63;7.30;;;19.90;99.90;;;;;;4957378;28;20020;-74
2023/09/15 08:56:49;;;;;;;9.27;6.90;;;20.00;99.90;;;;;;4960188;29;20362;-66
2023/09/15 08:59:16;;;;;;;9.27;7.15;;;20.00;99.90;;;;;;4958115;29;20031;-66
2023/09/15 09:01:42;;;;;;;10.93;6.47;;;20.00;99.90;;;;;;4960396;28;20035;-67
2023/09/15 09:04:07;;;;;;;8.38;6.35;;;20.00;99.90;;;;;;4960139;29;20362;-67
2023/09/15 09:06:35;;;;;;;7.35;6.18;;;20.10;99.80;;;;;;4960839;28;20123;-70
2023/09/15 09:09:02;;;;;;;8.02;6.25;;;20.10;99.80;;;;;;4960318;28;20031;-68
2023/09/15 09:11:28;;;;;;;5.97;5.35;;;20.10;99.60;;;;;;4960597;29;20492;-67
2023/09/15 09:13:54;;;;;;;10.02;5.57;;;20.10;99.20;;;;;;4960649;28;20369;-73
2023/09/15 09:16:20;;;;;;;8.52;5.97;;;20.20;98.80;;;;;;4962856;28;20538;-68
2023/09/15 09:18:59;;;;;;;7.60;5.28;;;20.20;98.90;;;;;;4962059;28;20496;-68
2023/09/15 09:21:26;;;;;;;5.63;5.10;;;20.20;98.80;;;;;;4960642;28;20532;-67
2023/09/15 09:23:52;;;;;;;6.65;5.03;;;20.20;98.60;;;;;;4960700;29;20027;-70
2023/09/15 09:26:17;;;;;;;4.22;3.80;;;20.20;98.60;;;;;;4960027;28;20400;-67
2023/09/15 09:28:44;;;;;;;8.57;3.95;;;20.20;98.40;;;;;;4960361;29;20039;-69
2023/09/15 09:31:10;;;;;;;4.63;3.88;;;20.20;97.90;;;;;;4956211;28;20048;-68
2023/09/15 09:33:39;;;;;;;4.55;3.40;;;20.30;98.00;;;;;;4960569;28;20031;-66
2023/09/15 09:36:15;;;;;;;4.72;3.70;;;20.30;98.40;;;;;;4942426;29;20031;-67
2023/09/15 09:38:42;;;;;;;6.53;3.90;;;20.30;98.60;;;;;;4958048;28;20023;-70
2023/09/15 09:41:11;;;;;;;6.82;4.78;;;20.40;98.10;;;;;;4958148;28;20032;-66
2023/09/15 09:43:42;;;;;;;6.00;3.90;;;20.40;98.30;;;;;;4958484;28;20031;-68
2023/09/15 09:46:09;;;;;;;8.65;3.85;;;20.40;98.10;;;;;;4951663;28;20052;-71
2023/09/15 09:48:38;;;;;;;6.47;4.95;;;20.40;97.90;;;;;;4956451;29;20030;-67
2023/09/15 09:51:05;;;;;;;5.57;4.20;;;20.40;98.10;;;;;;4953354;29;20469;-67
2023/09/15 09:53:34;;;;;;;5.80;5.20;;;20.40;98.10;;;;;;4955959;28;20051;-69
2023/09/15 09:56:09;;;;;;;5.32;4.68;;;20.40;97.60;;;;;;4957013;29;20027;-65
2023/09/15 09:58:36;;;;;;;6.50;5.53;;;20.50;97.60;;;;;;4956779;29;20081;-67
2023/09/15 10:01:04;;;;;;;5.93;5.32;;;20.50;97.90;;;;;;4956173;28;20094;-66
2023/09/15 10:03:30;;;;;;;7.22;5.10;;;20.50;98.00;;;;;;4952322;29;20408;-66
2023/09/15 10:05:57;;;;;;;8.32;4.80;;;20.50;98.20;;;;;;4956806;29;20488;-74
2023/09/15 10:08:23;;;;;;;10.05;5.43;;;20.50;98.40;;;;;;4957062;29;20106;-70
2023/09/15 10:10:50;;;;;;;7.15;5.07;;;20.60;98.30;;;;;;4956713;29;20488;-65
2023/09/15 10:13:17;;;;;;;5.72;5.10;;;20.60;98.20;;;;;;4949835;29;20054;-73
2023/09/15 10:15:44;;;;;;;5.57;4.68;;;20.60;98.10;;;;;;4955650;29;20046;-70
2023/09/15 10:18:15;;;;;;;5.10;3.80;;;20.60;98.20;;;;;;4954684;29;20113;-69
2023/09/15 10:20:47;;;;;;;6.37;4.27;;;20.60;97.80;;;;;;4966679;28;20035;-73
2023/09/15 10:23:13;;;;;;;4.45;3.53;;;20.70;97.40;;;;;;4974834;28;20026;-65
2023/09/15 10:25:45;;;;;;;5.18;3.70;;;20.70;97.00;;;;;;4975167;28;20030;-65
2023/09/15 10:28:11;;;;;;;5.10;3.95;;;20.70;97.10;;;;;;4975256;28;20062;-67
2023/09/15 10:30:40;;;;;;;8.75;4.10;;;20.70;97.20;;;;;;4975290;28;20026;-72
2023/09/15 10:33:07;;;;;;;4.13;3.30;;;20.70;97.00;;;;;;4975379;28;20027;-65
2023/09/15 10:35:33;;;;;;;6.35;3.60;;;20.70;97.00;;;;;;4975258;28;20030;-66
2023/09/15 10:38:04;;;;;;;4.20;3.35;;;20.70;97.10;;;;;;4974625;28;20093;-66
2023/09/15 10:40:44;;;;;;;7.03;3.03;;;20.80;96.90;;;;;;4971883;28;20077;-71
2023/09/15 10:43:09;;;;;;;4.63;3.03;;;20.80;96.70;;;;;;4973926;28;20027;-69
2023/09/15 10:45:35;;;;;;;4.07;2.72;;;20.80;97.10;;;;;;4974049;28;20046;-71
2023/09/15 10:48:01;;;;;;;4.97;2.67;;;20.90;97.00;;;;;;4973499;28;20431;-74
2023/09/15 10:50:39;;;;;;;3.88;2.42;;;20.90;97.10;;;;;;4974189;28;20026;-69
2023/09/15 10:53:09;;;;;;;3.63;2.40;;;20.90;97.40;;;;;;4974582;28;20043;-67
2023/09/15 10:55:35;;;;;;;4.60;2.33;;;21.00;97.20;;;;;;4967109;28;20384;-67
2023/09/15 10:58:03;;;;;;;5.28;2.28;;;21.00;96.30;;;;;;4972906;28;20023;-67
2023/09/15 11:00:30;;;;;;;3.63;2.15;;;21.00;96.50;;;;;;4973939;28;20031;-67
2023/09/15 11:02:56;;;;;;;4.03;2.00;;;21.00;96.20;;;;;;4972752;28;20539;-66
2023/09/15 11:05:22;;;;;;;6.60;2.40;;;21.10;95.40;;;;;;4973175;28;20121;-65
2023/09/15 11:07:49;;;;;;;3.30;2.15;;;21.10;95.40;;;;;;4972129;28;20500;-68
2023/09/15 11:10:15;;;;;;;5.13;2.58;;;21.10;95.80;;;;;;4970847;28;20026;-69
2023/09/15 11:12:40;;;;;;;4.65;2.50;;;21.10;95.50;;;;;;4973356;28;20030;-68
2023/09/15 11:15:07;;;;;;;4.80;2.33;;;21.10;95.50;;;;;;4975314;28;20031;-75
2023/09/15 11:17:32;;;;;;;3.85;2.33;;;21.10;95.50;;;;;;4972930;28;20035;-72
2023/09/15 11:20:03;;;;;;;4.72;2.40;;;21.10;95.60;;;;;;4971738;28;20065;-66
2023/09/15 11:22:29;;;;;;;5.20;2.80;;;21.10;96.10;;;;;;4955496;29;20114;-67
2023/09/15 11:24:56;;;;;;;4.95;2.22;;;21.20;95.40;;;;;;4969129;28;20149;-67
2023/09/15 11:27:22;;;;;;;4.63;2.85;;;21.20;95.30;;;;;;4975103;28;20038;-67
2023/09/15 11:29:47;;;;;;;6.18;2.65;;;21.20;95.20;;;;;;4971365;28;20027;-67
2023/09/15 11:32:13;;;;;;;4.50;2.40;;;21.20;95.50;;;;;;4971039;28;20034;-76
2023/09/15 11:34:39;;;;;;;2.67;2.20;;;21.30;95.10;;;;;;4972091;28;20319;-68
2023/09/15 11:37:05;;;;;;;4.97;2.75;;;21.30;95.00;;;;;;4972280;28;20089;-75
2023/09/15 11:39:30;;;;;;;5.07;1.83;;;21.30;94.70;;;;;;4971353;28;20034;-67
2023/09/15 11:41:56;;;;;;;3.15;1.70;;;21.30;95.10;;;;;;4972647;28;20042;-67
2023/09/15 11:44:29;;;;;;;5.15;1.70;;;21.30;94.90;;;;;;4971885;28;20031;-68
2023/09/15 11:46:58;;;;;;;5.68;2.17;;;21.30;96.20;;;;;;4972132;28;20109;-67
2023/09/15 11:49:25;;;;;;;6.22;1.80;;;21.30;96.20;;;;;;4973760;28;20019;-70
2023/09/15 11:51:55;;;;;;;4.13;2.20;;;21.30;95.20;;;;;;4971705;28;20038;-76
2023/09/15 11:54:21;;;;;;;5.55;2.28;;;21.40;95.30;;;;;;4970478;28;20113;-68
2023/09/15 11:56:47;;;;;;;4.88;1.90;;;21.40;95.10;;;;;;4966621;28;20041;-66
2023/09/15 11:59:15;;;;;;;4.32;2.28;;;21.40;95.50;;;;;;4973022;28;20110;-68
2023/09/15 12:01:41;;;;;;;4.75;1.70;;;21.40;95.70;;;;;;4963915;28;20022;-68
2023/09/15 12:04:07;;;;;;;3.72;1.50;;;21.40;96.50;;;;;;4969113;28;20027;-74
2023/09/15 12:06:33;;;;;;;2.22;1.23;;;21.40;95.50;;;;;;4969750;28;20546;-75
2023/09/15 12:08:58;;;;;;;3.67;1.52;;;21.40;94.00;;;;;;4970320;28;20030;-67
2023/09/15 12:11:24;;;;;;;3.90;1.58;;;21.50;94.80;;;;;;4971631;28;20109;-73
2023/09/15 12:13:54;;;;;;;5.72;1.58;;;21.50;94.60;;;;;;4967298;28;20126;-67
2023/09/15 12:16:31;;;;;;;5.18;1.42;;;21.50;95.30;;;;;;4970872;28;20120;-66
2023/09/15 12:18:59;;;;;;;4.13;1.60;;;21.50;95.70;;;;;;4972264;28;20105;-68
2023/09/15 12:21:26;;;;;;;2.08;1.20;;;21.50;93.70;;;;;;4956061;28;20035;-66
2023/09/15 12:23:56;;;;;;;3.40;1.67;;;21.50;94.00;;;;;;4953287;29;20350;-67
2023/09/15 12:26:24;;;;;;;4.60;1.20;;;21.50;94.00;;;;;;4953155;28;20031;-68
2023/09/15 12:28:50;;;;;;;3.80;1.70;;;21.60;94.50;;;;;;4953925;29;20152;-70
2023/09/15 12:31:17;;;;;;;3.90;1.67;;;21.60;94.90;;;;;;4954737;28;20110;-79
2023/09/15 12:33:44;;;;;;;4.07;2.17;;;21.60;95.60;;;;;;4953657;29;20058;-72